Time;durP1;ratioP1;P1;durP2;ratioP2;P2;SDS_P1;SDS_P2;PMS_P1;PMS_P2;Temp;Humidity;BMP_temperature;BMP_pressure;BME280_temperature;BME280_humidity;BME280_pressure;Samples;Min_cycle;Max_cycle;Signal;HPM_P1;HPM_P2
2023/12/28 00:00:10;;;;;;;2.47;2.07;;;;;;;;;;5075138;28;20250;-72
2023/12/28 00:02:36;;;;;;;3.33;2.10;;;;;;;;;;5075526;28;20260;-71
2023/12/28 00:05:03;;;;;;;3.50;2.27;;;;;;;;;;5075471;28;20241;-71
2023/12/28 00:07:29;;;;;;;4.50;2.53;;;;;;;;;;5075502;28;20268;-71
2023/12/28 00:09:55;;;;;;;2.87;2.30;;;;;;;;;;5094953;23;20625;-69
2023/12/28 00:12:22;;;;;;;2.60;2.00;;;;;;;;;;5057300;28;20238;-68
2023/12/28 00:14:48;;;;;;;3.70;2.37;;;;;;;;;;5055602;28;20174;-68
2023/12/28 00:17:14;;;;;;;3.30;2.00;;;;;;;;;;5055301;28;20179;-68
2023/12/28 00:19:40;;;;;;;2.47;2.00;;;;;;;;;;5056513;28;20659;-69
2023/12/28 00:22:06;;;;;;;4.57;2.30;;;;;;;;;;5057143;28;20186;-68
2023/12/28 00:24:32;;;;;;;2.43;2.10;;;;;;;;;;5056521;28;20209;-68
2023/12/28 00:26:58;;;;;;;4.37;2.77;;;;;;;;;;5056777;28;20171;-68
2023/12/28 00:29:24;;;;;;;3.90;2.20;;;;;;;;;;5056575;28;20257;-68
2023/12/28 00:31:50;;;;;;;3.27;2.17;;;;;;;;;;5038435;28;20209;-68
2023/12/28 00:34:16;;;;;;;2.80;2.00;;;;;;;;;;5038561;28;20174;-68
2023/12/28 00:36:42;;;;;;;2.60;1.80;;;;;;;;;;5056209;28;20179;-68
2023/12/28 00:39:08;;;;;;;2.87;2.20;;;;;;;;;;5038412;28;20570;-68
2023/12/28 00:41:34;;;;;;;4.10;2.13;;;;;;;;;;5056087;28;20198;-68
2023/12/28 00:44:01;;;;;;;3.03;2.10;;;;;;;;;;5058538;28;20185;-69
2023/12/28 00:46:27;;;;;;;2.33;2.00;;;;;;;;;;5056378;28;20229;-68
2023/12/28 00:48:53;;;;;;;3.80;2.20;;;;;;;;;;5056440;28;20174;-69
2023/12/28 00:51:21;;;;;;;2.60;1.90;;;;;;;;;;5056961;28;20205;-69
2023/12/28 00:53:47;;;;;;;2.43;2.07;;;;;;;;;;5056280;28;20178;-68
2023/12/28 00:56:13;;;;;;;2.60;2.17;;;;;;;;;;5038021;28;20684;-68
2023/12/28 00:58:43;;;;;;;2.57;2.20;;;;;;;;;;5055730;28;20663;-68
2023/12/28 01:01:09;;;;;;;2.37;2.10;;;;;;;;;;5037626;28;20221;-69
2023/12/28 01:03:35;;;;;;;2.40;2.20;;;;;;;;;;5056079;28;20175;-68
2023/12/28 01:06:01;;;;;;;2.73;2.07;;;;;;;;;;5055919;28;20178;-68
2023/12/28 01:08:27;;;;;;;2.50;2.30;;;;;;;;;;5056278;28;20186;-69
2023/12/28 01:10:53;;;;;;;2.93;2.10;;;;;;;;;;5055943;28;20288;-68
2023/12/28 01:13:19;;;;;;;3.60;2.50;;;;;;;;;;5038051;28;20186;-68
2023/12/28 01:15:45;;;;;;;4.60;2.53;;;;;;;;;;5037779;28;20187;-68
2023/12/28 01:18:11;;;;;;;2.77;2.50;;;;;;;;;;5037817;28;20238;-68
2023/12/28 01:20:37;;;;;;;3.27;2.30;;;;;;;;;;5037553;28;20293;-68
2023/12/28 01:23:03;;;;;;;3.60;2.50;;;;;;;;;;5055979;28;20182;-68
2023/12/28 01:25:29;;;;;;;4.83;2.20;;;;;;;;;;5055387;28;20182;-68
2023/12/28 01:27:55;;;;;;;2.47;2.23;;;;;;;;;;5055736;28;20178;-68
2023/12/28 01:30:21;;;;;;;4.57;2.77;;;;;;;;;;5055390;28;20194;-68
2023/12/28 01:32:47;;;;;;;2.97;2.33;;;;;;;;;;5055674;28;20526;-68
2023/12/28 01:35:13;;;;;;;2.97;2.50;;;;;;;;;;5056027;28;20181;-68
2023/12/28 01:37:39;;;;;;;4.00;2.30;;;;;;;;;;5038856;28;20183;-68
2023/12/28 01:40:05;;;;;;;3.47;2.57;;;;;;;;;;5037340;28;20214;-68
2023/12/28 01:42:31;;;;;;;3.73;2.80;;;;;;;;;;5038755;28;20185;-68
2023/12/28 01:44:58;;;;;;;2.90;2.43;;;;;;;;;;5058590;28;20213;-68
2023/12/28 01:47:26;;;;;;;3.17;2.67;;;;;;;;;;5072499;28;20178;-69
2023/12/28 01:49:52;;;;;;;4.67;2.60;;;;;;;;;;5058627;28;20198;-69
2023/12/28 01:52:18;;;;;;;7.37;2.90;;;;;;;;;;5074457;28;20159;-68
2023/12/28 01:54:44;;;;;;;6.23;2.70;;;;;;;;;;5058473;28;20178;-68
2023/12/28 01:57:11;;;;;;;3.00;2.63;;;;;;;;;;5055987;28;20668;-69
2023/12/28 01:59:37;;;;;;;4.43;2.87;;;;;;;;;;5055197;28;20198;-69
2023/12/28 02:02:03;;;;;;;2.80;2.50;;;;;;;;;;5055229;28;20223;-68
2023/12/28 02:04:30;;;;;;;2.80;2.50;;;;;;;;;;5037353;28;20567;-68
2023/12/28 02:06:57;;;;;;;2.90;2.50;;;;;;;;;;5037446;28;20273;-69
2023/12/28 02:09:23;;;;;;;3.30;2.33;;;;;;;;;;5055024;28;20178;-68
2023/12/28 02:11:49;;;;;;;4.17;2.70;;;;;;;;;;5054709;28;20317;-68
2023/12/28 02:14:15;;;;;;;2.83;2.47;;;;;;;;;;5055563;28;20232;-69
2023/12/28 02:17:03;;;;;;;4.77;2.73;;;;;;;;;;5037040;28;20636;-69
2023/12/28 02:19:32;;;;;;;4.17;2.80;;;;;;;;;;5055284;28;20166;-68
2023/12/28 02:21:59;;;;;;;3.13;2.50;;;;;;;;;;5054914;28;20267;-68
2023/12/28 02:24:25;;;;;;;4.00;2.70;;;;;;;;;;5054782;28;20186;-69
2023/12/28 02:26:51;;;;;;;5.90;2.97;;;;;;;;;;5055108;28;20240;-68
2023/12/28 02:29:19;;;;;;;5.00;3.10;;;;;;;;;;5040033;28;20174;-70
2023/12/28 02:31:51;;;;;;;3.30;2.67;;;;;;;;;;5036791;28;20661;-68
2023/12/28 02:34:22;;;;;;;6.70;2.90;;;;;;;;;;5037014;28;20178;-70
2023/12/28 02:36:48;;;;;;;3.70;2.50;;;;;;;;;;5056380;28;20162;-68
2023/12/28 02:39:15;;;;;;;3.07;2.27;;;;;;;;;;5058527;28;20171;-69
2023/12/28 02:41:43;;;;;;;4.60;2.30;;;;;;;;;;5040437;28;20293;-68
2023/12/28 02:44:09;;;;;;;2.30;2.10;;;;;;;;;;5058535;28;20201;-68
2023/12/28 02:46:35;;;;;;;4.63;2.50;;;;;;;;;;5058306;28;20637;-68
2023/12/28 02:49:01;;;;;;;4.37;2.70;;;;;;;;;;5058472;28;20636;-68
2023/12/28 02:51:27;;;;;;;5.70;2.70;;;;;;;;;;5058093;28;20278;-68
2023/12/28 02:53:53;;;;;;;3.37;2.47;;;;;;;;;;5058065;28;20248;-68
2023/12/28 02:56:19;;;;;;;4.30;3.03;;;;;;;;;;5039986;28;20652;-68
2023/12/28 02:58:45;;;;;;;3.93;2.67;;;;;;;;;;5058265;28;20693;-68
2023/12/28 03:01:11;;;;;;;5.07;2.50;;;;;;;;;;5039680;28;20256;-67
2023/12/28 03:03:37;;;;;;;8.67;2.83;;;;;;;;;;5057704;28;20170;-68
2023/12/28 03:06:03;;;;;;;5.83;3.10;;;;;;;;;;5039226;28;20182;-68
2023/12/28 03:08:29;;;;;;;5.20;2.33;;;;;;;;;;5039445;28;20179;-68
2023/12/28 03:10:55;;;;;;;4.80;2.27;;;;;;;;;;5056940;28;20224;-69
2023/12/28 03:13:21;;;;;;;5.43;2.70;;;;;;;;;;5039338;28;20183;-68
2023/12/28 03:15:47;;;;;;;4.07;2.80;;;;;;;;;;5039387;28;20185;-68
2023/12/28 03:18:13;;;;;;;5.53;2.90;;;;;;;;;;5057030;28;20236;-68
2023/12/28 03:20:39;;;;;;;6.70;3.20;;;;;;;;;;5041253;28;20214;-68
2023/12/28 03:23:05;;;;;;;8.63;2.40;;;;;;;;;;5056954;28;20211;-68
2023/12/28 03:25:30;;;;;;;4.67;2.30;;;;;;;;;;5039238;28;20178;-68
2023/12/28 03:27:56;;;;;;;4.13;3.00;;;;;;;;;;5057311;28;20171;-67
2023/12/28 03:30:22;;;;;;;4.20;2.50;;;;;;;;;;5057134;28;20194;-68
2023/12/28 03:32:48;;;;;;;2.83;2.30;;;;;;;;;;5058184;28;20594;-68
2023/12/28 03:35:14;;;;;;;4.50;2.77;;;;;;;;;;5057198;28;20559;-68
2023/12/28 03:37:40;;;;;;;4.20;2.60;;;;;;;;;;5039195;28;20569;-68
2023/12/28 03:40:07;;;;;;;5.77;2.50;;;;;;;;;;5038810;28;20207;-68
2023/12/28 03:42:33;;;;;;;5.07;2.37;;;;;;;;;;5057258;28;20194;-68
2023/12/28 03:44:59;;;;;;;3.07;2.60;;;;;;;;;;5039570;28;20671;-68
2023/12/28 03:47:25;;;;;;;6.60;3.40;;;;;;;;;;5038470;28;20171;-68
2023/12/28 03:49:51;;;;;;;5.93;2.60;;;;;;;;;;5056254;28;20755;-68
2023/12/28 03:52:17;;;;;;;4.43;2.57;;;;;;;;;;5038842;28;20269;-68
2023/12/28 03:54:42;;;;;;;3.77;3.00;;;;;;;;;;5056565;28;20217;-69
2023/12/28 03:57:09;;;;;;;4.27;2.60;;;;;;;;;;5038586;28;20247;-68
2023/12/28 03:59:34;;;;;;;3.73;3.07;;;;;;;;;;5038520;28;20695;-68
2023/12/28 04:02:00;;;;;;;4.23;2.70;;;;;;;;;;5056675;28;20170;-68
2023/12/28 04:04:26;;;;;;;4.00;3.00;;;;;;;;;;5056481;28;20205;-68
2023/12/28 04:06:52;;;;;;;5.00;2.80;;;;;;;;;;5056437;28;20174;-68
2023/12/28 04:09:19;;;;;;;7.07;3.30;;;;;;;;;;5056755;28;20202;-68
2023/12/28 04:11:45;;;;;;;4.10;3.20;;;;;;;;;;5056335;28;20206;-69
2023/12/28 04:14:11;;;;;;;5.03;3.67;;;;;;;;;;5039933;28;20713;-68
2023/12/28 04:16:37;;;;;;;4.63;3.20;;;;;;;;;;5056119;28;20526;-68
2023/12/28 04:19:03;;;;;;;5.90;3.10;;;;;;;;;;5038304;28;20276;-68
2023/12/28 04:21:29;;;;;;;5.17;3.13;;;;;;;;;;5055929;28;20591;-68
2023/12/28 04:23:55;;;;;;;3.50;2.83;;;;;;;;;;5056950;28;20174;-68
2023/12/28 04:26:20;;;;;;;4.70;3.47;;;;;;;;;;5057712;28;20183;-68
2023/12/28 04:28:46;;;;;;;3.57;2.80;;;;;;;;;;5055884;28;20257;-68
2023/12/28 04:31:12;;;;;;;4.93;3.57;;;;;;;;;;5056576;28;20225;-68
2023/12/28 04:33:38;;;;;;;5.13;3.00;;;;;;;;;;5056997;28;20186;-70
2023/12/28 04:36:05;;;;;;;4.37;3.30;;;;;;;;;;5056602;28;20261;-69
2023/12/28 04:38:34;;;;;;;3.57;3.27;;;;;;;;;;5052518;28;20183;-69
2023/12/28 04:41:00;;;;;;;8.03;3.73;;;;;;;;;;5075164;28;20210;-68
2023/12/28 04:43:26;;;;;;;9.47;3.83;;;;;;;;;;5067279;28;20175;-70
2023/12/28 04:45:52;;;;;;;4.57;3.40;;;;;;;;;;5063897;28;20178;-68
2023/12/28 04:48:20;;;;;;;4.10;2.73;;;;;;;;;;5037589;28;20259;-70
2023/12/28 04:50:47;;;;;;;4.10;3.03;;;;;;;;;;5057285;28;20570;-69
2023/12/28 04:53:13;;;;;;;4.53;3.60;;;;;;;;;;5055343;28;20656;-68
2023/12/28 04:55:39;;;;;;;6.00;3.60;;;;;;;;;;5055358;28;20223;-69
2023/12/28 04:58:05;;;;;;;5.90;3.50;;;;;;;;;;5037275;28;20235;-69
2023/12/28 05:00:31;;;;;;;5.40;3.40;;;;;;;;;;5036341;28;20305;-68
2023/12/28 05:02:57;;;;;;;4.93;3.30;;;;;;;;;;5055375;28;20657;-68
2023/12/28 05:05:23;;;;;;;5.90;3.40;;;;;;;;;;5056871;28;20706;-68
2023/12/28 05:07:49;;;;;;;8.67;3.70;;;;;;;;;;5054865;28;20170;-68
2023/12/28 05:10:15;;;;;;;5.10;3.40;;;;;;;;;;5036884;28;20218;-69
2023/12/28 05:12:41;;;;;;;6.30;3.37;;;;;;;;;;5055461;28;20664;-68
2023/12/28 05:15:07;;;;;;;5.67;3.30;;;;;;;;;;5054736;28;20182;-68
2023/12/28 05:17:33;;;;;;;4.63;2.97;;;;;;;;;;5055103;28;20598;-69
2023/12/28 05:19:59;;;;;;;5.97;3.13;;;;;;;;;;5054850;28;20210;-69
2023/12/28 05:22:25;;;;;;;6.17;2.83;;;;;;;;;;5054924;28;20178;-69
2023/12/28 05:24:51;;;;;;;5.03;3.20;;;;;;;;;;5055529;28;20223;-69
2023/12/28 05:27:17;;;;;;;5.23;2.73;;;;;;;;;;5054530;28;20218;-69
2023/12/28 05:29:43;;;;;;;3.97;2.73;;;;;;;;;;5036895;28;20190;-69
2023/12/28 05:32:09;;;;;;;3.97;2.80;;;;;;;;;;5054962;28;20240;-69
2023/12/28 05:34:34;;;;;;;5.70;2.50;;;;;;;;;;5055015;28;20181;-68
2023/12/28 05:37:00;;;;;;;4.43;2.80;;;;;;;;;;5035810;28;20467;-68
2023/12/28 05:39:26;;;;;;;5.00;2.87;;;;;;;;;;5054056;28;20240;-69
2023/12/28 05:41:52;;;;;;;5.17;2.53;;;;;;;;;;5036190;28;20294;-68
2023/12/28 05:44:18;;;;;;;5.37;2.60;;;;;;;;;;5036469;28;20228;-68
2023/12/28 05:46:44;;;;;;;6.80;3.63;;;;;;;;;;5054621;28;20186;-68
2023/12/28 05:49:10;;;;;;;4.73;3.00;;;;;;;;;;5054988;28;20178;-68
2023/12/28 05:51:40;;;;;;;5.17;3.20;;;;;;;;;;5036523;28;20198;-68
2023/12/28 05:54:07;;;;;;;4.47;3.03;;;;;;;;;;5054321;28;20621;-68
2023/12/28 05:56:33;;;;;;;3.77;2.60;;;;;;;;;;5038625;28;20224;-69
2023/12/28 05:58:59;;;;;;;5.77;2.93;;;;;;;;;;5037395;28;20178;-70
2023/12/28 06:01:26;;;;;;;5.70;3.17;;;;;;;;;;5036365;28;20636;-70
2023/12/28 06:03:52;;;;;;;6.87;3.67;;;;;;;;;;5036405;28;20178;-70
2023/12/28 06:06:18;;;;;;;5.67;3.00;;;;;;;;;;5054348;28;20200;-69
2023/12/28 06:08:44;;;;;;;4.20;2.80;;;;;;;;;;5036221;28;20175;-70
2023/12/28 06:11:10;;;;;;;5.40;2.90;;;;;;;;;;5035911;28;20688;-69
2023/12/28 06:13:36;;;;;;;4.63;3.00;;;;;;;;;;5054249;28;20667;-70
2023/12/28 06:16:02;;;;;;;4.63;2.53;;;;;;;;;;5036751;28;20182;-69
2023/12/28 06:18:28;;;;;;;4.90;3.10;;;;;;;;;;5036487;28;20269;-70
2023/12/28 06:20:55;;;;;;;4.03;2.57;;;;;;;;;;5054473;28;20210;-69
2023/12/28 06:23:21;;;;;;;6.03;2.50;;;;;;;;;;5054387;28;20619;-70
2023/12/28 06:25:47;;;;;;;5.83;2.43;;;;;;;;;;5036231;28;20232;-69
2023/12/28 06:28:13;;;;;;;4.97;2.33;;;;;;;;;;5036368;28;20186;-69
2023/12/28 06:30:39;;;;;;;5.97;2.50;;;;;;;;;;5036123;28;20213;-69
2023/12/28 06:33:05;;;;;;;8.50;2.40;;;;;;;;;;5054409;28;20179;-69
2023/12/28 06:35:31;;;;;;;4.90;2.50;;;;;;;;;;5036585;28;20546;-70
2023/12/28 06:37:57;;;;;;;3.53;2.83;;;;;;;;;;5054288;28;20190;-70
2023/12/28 06:40:23;;;;;;;6.83;2.53;;;;;;;;;;5036488;28;20645;-69
2023/12/28 06:42:49;;;;;;;4.03;2.13;;;;;;;;;;5054596;28;20178;-69
2023/12/28 06:45:15;;;;;;;7.13;2.80;;;;;;;;;;5054972;28;20220;-69
2023/12/28 06:47:41;;;;;;;7.93;3.60;;;;;;;;;;5056395;28;20170;-69
2023/12/28 06:50:08;;;;;;;7.30;3.20;;;;;;;;;;5055017;28;20198;-69
2023/12/28 06:52:34;;;;;;;4.23;3.27;;;;;;;;;;5053853;28;20185;-70
2023/12/28 06:55:00;;;;;;;9.87;3.20;;;;;;;;;;5053637;28;20208;-69
2023/12/28 06:57:26;;;;;;;4.50;2.83;;;;;;;;;;5053427;28;20174;-69
2023/12/28 06:59:52;;;;;;;6.90;2.93;;;;;;;;;;5053470;28;20267;-69
2023/12/28 07:02:17;;;;;;;4.80;2.40;;;;;;;;;;5053419;28;20674;-69
2023/12/28 07:04:43;;;;;;;6.83;2.63;;;;;;;;;;5035562;28;20269;-69
2023/12/28 07:07:09;;;;;;;8.20;2.63;;;;;;;;;;5053429;28;20175;-69
2023/12/28 07:09:35;;;;;;;6.63;3.13;;;;;;;;;;5035226;28;20206;-69
2023/12/28 07:12:02;;;;;;;8.63;2.20;;;;;;;;;;5035826;28;20178;-69
2023/12/28 07:14:28;;;;;;;6.03;2.40;;;;;;;;;;5053325;28;20254;-69
2023/12/28 07:16:54;;;;;;;6.87;2.40;;;;;;;;;;5060044;28;20190;-69
2023/12/28 07:19:20;;;;;;;6.27;2.30;;;;;;;;;;5056713;28;20178;-70
2023/12/28 07:21:46;;;;;;;6.17;2.60;;;;;;;;;;5073629;28;20210;-70
2023/12/28 07:24:12;;;;;;;13.40;2.93;;;;;;;;;;5075802;28;20212;-70
2023/12/28 07:26:38;;;;;;;9.23;2.87;;;;;;;;;;5068054;28;20174;-69
2023/12/28 07:29:04;;;;;;;9.40;2.50;;;;;;;;;;5059301;28;20170;-69
2023/12/28 07:31:31;;;;;;;8.43;2.60;;;;;;;;;;5057590;28;20252;-69
2023/12/28 07:33:57;;;;;;;7.80;2.67;;;;;;;;;;5057303;28;20171;-70
2023/12/28 07:36:24;;;;;;;11.93;3.40;;;;;;;;;;5058354;28;20175;-70
2023/12/28 07:38:50;;;;;;;8.33;2.53;;;;;;;;;;5049038;28;20235;-69
2023/12/28 07:41:16;;;;;;;9.40;3.07;;;;;;;;;;5066648;28;20684;-69
2023/12/28 07:43:42;;;;;;;6.57;2.30;;;;;;;;;;5069309;28;20182;-70
2023/12/28 07:46:08;;;;;;;7.80;2.47;;;;;;;;;;5071115;28;20178;-69
2023/12/28 07:48:34;;;;;;;6.50;2.90;;;;;;;;;;5074614;28;20170;-70
2023/12/28 07:51:04;;;;;;;6.03;3.23;;;;;;;;;;5073086;28;20201;-69
2023/12/28 07:53:30;;;;;;;4.73;1.90;;;;;;;;;;5073490;28;20197;-69
2023/12/28 07:55:56;;;;;;;7.83;2.63;;;;;;;;;;5041066;28;20181;-69
2023/12/28 07:58:22;;;;;;;7.83;2.30;;;;;;;;;;5056694;28;20183;-69
2023/12/28 08:00:49;;;;;;;10.07;2.53;;;;;;;;;;5056375;28;20255;-69
2023/12/28 08:03:17;;;;;;;9.57;2.57;;;;;;;;;;5056562;28;20174;-69
2023/12/28 08:05:43;;;;;;;7.10;2.43;;;;;;;;;;5038350;28;20182;-68
2023/12/28 08:08:09;;;;;;;6.20;2.37;;;;;;;;;;5056089;28;20175;-69
2023/12/28 08:10:35;;;;;;;6.27;2.33;;;;;;;;;;5056307;28;20218;-69
2023/12/28 08:13:01;;;;;;;8.33;2.40;;;;;;;;;;5056282;28;20255;-69
2023/12/28 08:15:27;;;;;;;8.90;2.57;;;;;;;;;;5056217;28;20233;-69
2023/12/28 08:17:53;;;;;;;8.73;2.63;;;;;;;;;;5056015;28;20186;-69
2023/12/28 08:20:19;;;;;;;10.23;2.53;;;;;;;;;;5055944;28;20210;-69
2023/12/28 08:22:45;;;;;;;9.80;2.97;;;;;;;;;;5055992;28;20643;-69
2023/12/28 08:25:11;;;;;;;8.23;2.60;;;;;;;;;;5055899;28;20183;-69
2023/12/28 08:27:37;;;;;;;8.80;2.80;;;;;;;;;;5056348;28;20178;-69
2023/12/28 08:30:04;;;;;;;8.23;3.10;;;;;;;;;;5056556;28;20202;-69
2023/12/28 08:32:30;;;;;;;14.37;3.17;;;;;;;;;;5039313;28;20182;-69
2023/12/28 08:34:56;;;;;;;10.10;2.87;;;;;;;;;;5055785;28;20174;-69
2023/12/28 08:37:22;;;;;;;8.20;3.73;;;;;;;;;;5037674;28;20189;-69
2023/12/28 08:39:48;;;;;;;7.60;2.80;;;;;;;;;;5037891;28;20206;-69
2023/12/28 08:42:14;;;;;;;13.27;3.03;;;;;;;;;;5055731;28;20178;-69
2023/12/28 08:44:40;;;;;;;10.63;3.47;;;;;;;;;;5055695;28;20551;-69
2023/12/28 08:47:06;;;;;;;7.73;2.43;;;;;;;;;;5055704;28;20717;-69
2023/12/28 08:49:33;;;;;;;9.70;2.90;;;;;;;;;;5055534;28;20174;-70
2023/12/28 08:51:59;;;;;;;10.70;3.10;;;;;;;;;;5055763;28;20552;-68
2023/12/28 08:54:25;;;;;;;6.20;2.37;;;;;;;;;;5037403;28;20221;-69
2023/12/28 08:56:51;;;;;;;4.47;1.83;;;;;;;;;;5037840;28;20182;-68
2023/12/28 08:59:17;;;;;;;6.57;2.40;;;;;;;;;;5055550;28;20670;-69
2023/12/28 09:01:42;;;;;;;8.00;2.73;;;;;;;;;;5055384;28;20619;-69
2023/12/28 09:04:08;;;;;;;13.30;3.50;;;;;;;;;;5037351;28;20179;-69
2023/12/28 09:06:35;;;;;;;8.50;2.53;;;;;;;;;;5055394;28;20175;-69
2023/12/28 09:09:01;;;;;;;9.37;3.10;;;;;;;;;;5037101;28;20185;-69
2023/12/28 09:11:28;;;;;;;11.73;3.07;;;;;;;;;;5036966;28;20284;-69
2023/12/28 09:13:54;;;;;;;8.80;2.67;;;;;;;;;;5037336;28;20231;-69
2023/12/28 09:16:20;;;;;;;8.87;2.60;;;;;;;;;;5055622;28;20182;-68
2023/12/28 09:18:46;;;;;;;7.63;2.47;;;;;;;;;;5054985;28;20181;-69
2023/12/28 09:21:12;;;;;;;12.10;3.10;;;;;;;;;;5055392;28;20252;-68
2023/12/28 09:23:40;;;;;;;13.63;3.33;;;;;;;;;;5038235;28;20190;-68
2023/12/28 09:26:06;;;;;;;9.33;2.50;;;;;;;;;;5056042;28;20170;-68
2023/12/28 09:28:32;;;;;;;9.87;2.87;;;;;;;;;;5054940;28;20178;-69
2023/12/28 09:30:58;;;;;;;9.37;2.67;;;;;;;;;;5037113;28;20205;-68
2023/12/28 09:33:24;;;;;;;8.73;2.67;;;;;;;;;;5055088;28;20186;-68
2023/12/28 09:35:50;;;;;;;11.33;3.10;;;;;;;;;;5037240;28;20189;-68
2023/12/28 09:38:16;;;;;;;12.50;3.40;;;;;;;;;;5037050;28;20217;-69
2023/12/28 09:40:43;;;;;;;11.40;2.80;;;;;;;;;;5054446;28;20210;-68
2023/12/28 09:43:12;;;;;;;11.10;2.40;;;;;;;;;;5036809;28;20571;-69
2023/12/28 09:45:38;;;;;;;10.47;2.67;;;;;;;;;;5054950;28;20176;-68
2023/12/28 09:48:04;;;;;;;14.63;3.13;;;;;;;;;;5054278;28;20253;-68
2023/12/28 09:50:30;;;;;;;11.17;2.80;;;;;;;;;;5054657;28;20220;-69
2023/12/28 09:52:57;;;;;;;7.83;2.80;;;;;;;;;;5054920;28;20178;-69
2023/12/28 09:55:24;;;;;;;14.47;2.77;;;;;;;;;;5036968;28;20186;-69
2023/12/28 09:57:51;;;;;;;11.67;2.50;;;;;;;;;;5054765;28;20528;-69
2023/12/28 10:00:17;;;;;;;10.23;3.00;;;;;;;;;;5054267;28;20206;-68
2023/12/28 10:02:44;;;;;;;14.60;2.80;;;;;;;;;;5046902;28;20241;-69
2023/12/28 10:05:13;;;;;;;10.27;2.67;;;;;;;;;;5076614;28;20181;-70
2023/12/28 10:07:43;;;;;;;13.73;2.70;;;;;;;;;;5077882;28;20166;-69
2023/12/28 10:10:09;;;;;;;8.63;3.03;;;;;;;;;;5057845;28;20221;-69
2023/12/28 10:12:35;;;;;;;5.90;2.27;;;;;;;;;;5056152;28;20178;-67
2023/12/28 10:15:01;;;;;;;8.70;2.50;;;;;;;;;;5057911;28;20177;-68
2023/12/28 10:17:27;;;;;;;8.60;2.43;;;;;;;;;;5072879;28;20193;-71
2023/12/28 10:19:53;;;;;;;12.10;3.23;;;;;;;;;;5068670;28;20214;-68
2023/12/28 10:22:19;;;;;;;10.70;2.77;;;;;;;;;;5065387;28;20181;-69
2023/12/28 10:24:46;;;;;;;7.93;2.30;;;;;;;;;;5069101;28;20159;-70
2023/12/28 10:27:14;;;;;;;10.37;3.00;;;;;;;;;;5071385;28;20212;-69
2023/12/28 10:29:40;;;;;;;12.00;2.50;;;;;;;;;;5072329;28;20158;-69
2023/12/28 10:32:06;;;;;;;10.43;2.70;;;;;;;;;;5068814;28;20241;-69
2023/12/28 10:34:32;;;;;;;11.77;2.83;;;;;;;;;;5061057;28;20242;-69
2023/12/28 10:36:59;;;;;;;12.63;3.43;;;;;;;;;;5064072;28;20178;-68
2023/12/28 10:39:26;;;;;;;8.83;2.10;;;;;;;;;;5054909;28;20175;-69
2023/12/28 10:41:55;;;;;;;11.90;3.30;;;;;;;;;;5054885;28;20263;-68
2023/12/28 10:44:23;;;;;;;10.40;3.17;;;;;;;;;;5054294;28;20171;-69
2023/12/28 10:46:51;;;;;;;8.97;2.60;;;;;;;;;;5054465;28;20637;-68
2023/12/28 10:49:17;;;;;;;8.53;2.73;;;;;;;;;;5055181;28;20262;-68
2023/12/28 10:51:45;;;;;;;8.37;2.40;;;;;;;;;;5054711;28;20206;-68
2023/12/28 10:54:11;;;;;;;11.50;3.40;;;;;;;;;;5037659;28;20186;-68
2023/12/28 10:56:42;;;;;;;8.53;2.57;;;;;;;;;;5054661;28;20183;-68
2023/12/28 10:59:14;;;;;;;9.80;2.57;;;;;;;;;;5056462;28;20589;-69
2023/12/28 11:01:42;;;;;;;9.17;2.70;;;;;;;;;;5058285;28;20210;-69
2023/12/28 11:04:10;;;;;;;9.10;2.67;;;;;;;;;;5057941;28;20518;-69
2023/12/28 11:06:37;;;;;;;16.20;2.93;;;;;;;;;;5059036;28;20186;-69
2023/12/28 11:09:05;;;;;;;10.17;2.60;;;;;;;;;;5058943;28;20170;-69
2023/12/28 11:11:31;;;;;;;10.50;2.77;;;;;;;;;;5040136;28;20210;-68
2023/12/28 11:14:00;;;;;;;16.10;3.47;;;;;;;;;;5058598;28;20205;-69
2023/12/28 11:16:26;;;;;;;10.93;3.70;;;;;;;;;;5058113;28;20552;-68
2023/12/28 11:18:53;;;;;;;7.13;2.17;;;;;;;;;;5058037;28;20201;-68
2023/12/28 11:21:20;;;;;;;20.33;2.90;;;;;;;;;;5057890;28;20737;-70
2023/12/28 11:23:48;;;;;;;11.63;2.70;;;;;;;;;;5040172;28;20556;-68
2023/12/28 11:26:18;;;;;;;7.57;2.20;;;;;;;;;;5040555;28;20190;-68
2023/12/28 11:28:44;;;;;;;10.17;2.93;;;;;;;;;;5057483;28;20652;-68
2023/12/28 11:31:11;;;;;;;7.53;2.60;;;;;;;;;;5059765;28;20213;-68
2023/12/28 11:33:44;;;;;;;8.97;2.53;;;;;;;;;;5060025;28;20214;-68
2023/12/28 11:36:10;;;;;;;8.87;2.10;;;;;;;;;;5060693;28;20162;-69
2023/12/28 11:38:38;;;;;;;5.33;2.00;;;;;;;;;;5060149;28;20579;-68
2023/12/28 11:41:04;;;;;;;10.07;2.03;;;;;;;;;;5042137;28;20210;-68
2023/12/28 11:43:35;;;;;;;7.87;2.30;;;;;;;;;;5059435;28;20185;-70
2023/12/28 11:46:05;;;;;;;8.93;2.33;;;;;;;;;;5059178;28;20155;-70
2023/12/28 11:48:30;;;;;;;9.90;2.30;;;;;;;;;;5044020;28;20222;-67
2023/12/28 11:50:58;;;;;;;10.83;3.13;;;;;;;;;;5061010;28;20300;-67
2023/12/28 11:53:24;;;;;;;9.53;3.03;;;;;;;;;;5059409;28;20185;-68
2023/12/28 11:55:50;;;;;;;7.00;2.63;;;;;;;;;;5059829;28;20624;-67
2023/12/28 11:58:17;;;;;;;7.67;2.50;;;;;;;;;;5041457;28;20187;-70
2023/12/28 12:00:43;;;;;;;5.43;2.37;;;;;;;;;;5058761;28;20246;-69
2023/12/28 12:03:12;;;;;;;9.00;2.60;;;;;;;;;;5041426;28;20555;-67
2023/12/28 12:05:39;;;;;;;6.33;2.27;;;;;;;;;;5058246;28;20174;-67
2023/12/28 12:08:08;;;;;;;11.30;3.53;;;;;;;;;;5057958;28;20224;-67
2023/12/28 12:10:34;;;;;;;14.47;5.40;;;;;;;;;;5056927;28;20213;-68
2023/12/28 12:13:00;;;;;;;13.07;4.70;;;;;;;;;;5057247;28;20179;-67
2023/12/28 12:15:26;;;;;;;14.30;5.87;;;;;;;;;;5039261;28;20186;-68
2023/12/28 12:17:52;;;;;;;12.13;5.00;;;;;;;;;;5039344;28;20239;-67
2023/12/28 12:20:18;;;;;;;9.33;3.23;;;;;;;;;;5057075;28;20217;-68
2023/12/28 12:22:44;;;;;;;10.23;3.70;;;;;;;;;;5039105;28;20178;-67
2023/12/28 12:25:10;;;;;;;7.63;3.13;;;;;;;;;;5039831;28;20186;-68
2023/12/28 12:27:38;;;;;;;12.20;2.93;;;;;;;;;;5057420;28;20178;-68
2023/12/28 12:30:04;;;;;;;8.67;2.00;;;;;;;;;;5039183;28;20610;-68
2023/12/28 12:32:31;;;;;;;6.57;2.63;;;;;;;;;;5056525;28;20259;-67
2023/12/28 12:34:57;;;;;;;7.27;3.47;;;;;;;;;;5057712;28;20178;-69
2023/12/28 12:37:23;;;;;;;11.73;2.80;;;;;;;;;;5039642;28;20197;-68
2023/12/28 12:39:50;;;;;;;10.37;2.77;;;;;;;;;;5057918;28;20179;-68
2023/12/28 12:42:16;;;;;;;7.53;3.10;;;;;;;;;;5038989;28;20182;-66
2023/12/28 12:44:42;;;;;;;7.43;2.10;;;;;;;;;;5057020;28;20556;-67
2023/12/28 12:47:08;;;;;;;9.03;3.13;;;;;;;;;;5057166;28;20182;-67
2023/12/28 12:49:34;;;;;;;7.53;2.50;;;;;;;;;;5070699;28;20207;-68
2023/12/28 12:52:01;;;;;;;12.00;2.50;;;;;;;;;;5060275;28;20182;-68
2023/12/28 12:54:28;;;;;;;13.40;2.93;;;;;;;;;;5070572;28;20178;-67
2023/12/28 12:56:54;;;;;;;6.53;2.50;;;;;;;;;;5057710;28;20644;-67
2023/12/28 12:59:21;;;;;;;17.13;2.80;;;;;;;;;;5038711;28;20640;-67
2023/12/28 13:01:52;;;;;;;6.23;2.80;;;;;;;;;;5056766;28;20202;-68
2023/12/28 13:04:18;;;;;;;10.37;3.17;;;;;;;;;;5056693;28;20166;-67
2023/12/28 13:06:44;;;;;;;11.77;2.87;;;;;;;;;;5055883;28;20179;-69
2023/12/28 13:09:11;;;;;;;9.23;2.50;;;;;;;;;;5056706;28;20630;-67
2023/12/28 13:11:37;;;;;;;7.47;3.00;;;;;;;;;;5038509;28;20220;-67
2023/12/28 13:14:04;;;;;;;7.77;3.23;;;;;;;;;;5056266;28;20213;-67
2023/12/28 13:16:30;;;;;;;8.53;2.33;;;;;;;;;;5038513;28;20218;-68
2023/12/28 13:18:56;;;;;;;8.57;2.50;;;;;;;;;;5056961;28;20633;-68
2023/12/28 13:21:22;;;;;;;9.37;3.60;;;;;;;;;;5056774;28;20228;-68
2023/12/28 13:23:48;;;;;;;8.63;2.43;;;;;;;;;;5059531;28;20594;-68
2023/12/28 13:26:14;;;;;;;10.33;3.13;;;;;;;;;;5047889;28;20187;-70
2023/12/28 13:28:42;;;;;;;9.90;2.47;;;;;;;;;;5071783;28;20578;-69
2023/12/28 13:31:08;;;;;;;14.93;2.97;;;;;;;;;;5071215;28;20206;-70
2023/12/28 13:33:34;;;;;;;5.77;2.47;;;;;;;;;;5067352;28;20174;-69
2023/12/28 13:36:00;;;;;;;11.97;2.70;;;;;;;;;;5038560;28;20273;-68
2023/12/28 13:38:27;;;;;;;12.70;2.63;;;;;;;;;;5037697;28;20217;-68
2023/12/28 13:40:53;;;;;;;7.83;2.70;;;;;;;;;;5037714;28;20214;-68
2023/12/28 13:43:19;;;;;;;9.40;2.83;;;;;;;;;;5055324;28;20170;-68
2023/12/28 13:45:45;;;;;;;8.67;2.90;;;;;;;;;;5055395;28;20304;-68
2023/12/28 13:48:11;;;;;;;10.87;2.83;;;;;;;;;;5055993;28;20179;-68
2023/12/28 13:50:37;;;;;;;8.63;2.30;;;;;;;;;;5056446;28;20198;-68
2023/12/28 13:53:06;;;;;;;10.03;2.57;;;;;;;;;;5055851;28;20343;-69
2023/12/28 13:55:33;;;;;;;11.67;2.90;;;;;;;;;;5056303;28;20263;-68
2023/12/28 13:57:59;;;;;;;8.20;2.93;;;;;;;;;;5056282;28;20213;-68
2023/12/28 14:00:25;;;;;;;9.43;2.70;;;;;;;;;;5055476;28;20205;-68
2023/12/28 14:02:52;;;;;;;6.60;2.83;;;;;;;;;;5058922;28;20181;-68
2023/12/28 14:05:19;;;;;;;11.67;3.63;;;;;;;;;;5047067;28;20249;-68
2023/12/28 14:07:45;;;;;;;24.40;6.90;;;;;;;;;;5065619;28;20175;-68
2023/12/28 14:10:11;;;;;;;7.83;3.53;;;;;;;;;;5064567;28;20242;-69
2023/12/28 14:12:37;;;;;;;7.70;2.30;;;;;;;;;;5058945;28;20617;-68
2023/12/28 14:15:03;;;;;;;5.70;2.10;;;;;;;;;;5055065;28;20185;-68
2023/12/28 14:17:30;;;;;;;8.70;2.33;;;;;;;;;;5037441;28;20190;-68
2023/12/28 14:19:56;;;;;;;5.10;1.77;;;;;;;;;;5055179;28;20195;-68
2023/12/28 14:22:22;;;;;;;9.03;2.80;;;;;;;;;;5037116;28;20224;-68
2023/12/28 14:24:48;;;;;;;10.07;2.60;;;;;;;;;;5055162;28;20178;-68
2023/12/28 14:27:14;;;;;;;6.63;2.00;;;;;;;;;;5054803;28;20610;-68
2023/12/28 14:29:40;;;;;;;9.63;2.63;;;;;;;;;;5055231;28;20178;-68
2023/12/28 14:32:07;;;;;;;6.70;2.10;;;;;;;;;;5037656;28;20185;-67
2023/12/28 14:34:33;;;;;;;9.00;2.53;;;;;;;;;;5041555;28;20185;-68